sensor_id;sensor_type;location;lat;lon;timestamp;pressure;altitude;pressure_sealevel;temperature;humidity
56594;BME280;42474;51.660;5.824;2023-10-13T00:02:04;1011.4;;;18.9;83.5
56594;BME280;42474;51.660;5.824;2023-10-13T00:06:04;1011.3;;;19;83.5
56594;BME280;42474;51.660;5.824;2023-10-13T00:10:05;1011.3;;;19;83.5
56594;BME280;42474;51.660;5.824;2023-10-13T00:14:05;1011.2;;;19;83.5
56594;BME280;42474;51.660;5.824;2023-10-13T00:18:05;1011.1;;;18.9;83.5
56594;BME280;42474;51.660;5.824;2023-10-13T00:22:05;1011.1;;;18.9;83.5
56594;BME280;42474;51.660;5.824;2023-10-13T00:26:04;1011.2;;;18.9;83.5
56594;BME280;42474;51.660;5.824;2023-10-13T00:30:05;1011.1;;;18.9;83.5
56594;BME280;42474;51.660;5.824;2023-10-13T00:34:04;1011;;;18.9;83.5
56594;BME280;42474;51.660;5.824;2023-10-13T00:38:04;1011;;;18.9;83.5
56594;BME280;42474;51.660;5.824;2023-10-13T00:42:04;1011;;;18.9;83.5
56594;BME280;42474;51.660;5.824;2023-10-13T00:46:04;1011;;;18.9;83.5
56594;BME280;42474;51.660;5.824;2023-10-13T00:50:05;1010.9;;;18.9;83.5
56594;BME280;42474;51.660;5.824;2023-10-13T00:54:05;1010.9;;;18.9;83.5
56594;BME280;42474;51.660;5.824;2023-10-13T00:58:04;1010.8;;;18.9;83.5
56594;BME280;42474;51.660;5.824;2023-10-13T01:02:04;1010.8;;;18.9;83.5
56594;BME280;42474;51.660;5.824;2023-10-13T01:06:04;1010.8;;;18.8;83.5
56594;BME280;42474;51.660;5.824;2023-10-13T01:10:08;1010.7;;;18.8;84
56594;BME280;42474;51.660;5.824;2023-10-13T01:14:04;1010.6;;;18.8;84
56594;BME280;42474;51.660;5.824;2023-10-13T01:18:06;1010.6;;;18.8;84
56594;BME280;42474;51.660;5.824;2023-10-13T01:22:04;1010.5;;;18.7;84
56594;BME280;42474;51.660;5.824;2023-10-13T01:26:04;1010.5;;;18.7;84
56594;BME280;42474;51.660;5.824;2023-10-13T01:30:05;1010.4;;;18.7;84.5
56594;BME280;42474;51.660;5.824;2023-10-13T01:34:04;1010.4;;;18.7;84
56594;BME280;42474;51.660;5.824;2023-10-13T01:38:04;1010.4;;;18.7;84
56594;BME280;42474;51.660;5.824;2023-10-13T01:42:04;1010.3;;;18.8;84
56594;BME280;42474;51.660;5.824;2023-10-13T01:50:05;1010.2;;;18.7;84
56594;BME280;42474;51.660;5.824;2023-10-13T01:54:05;1010.1;;;18.7;84
56594;BME280;42474;51.660;5.824;2023-10-13T01:58:04;1010;;;18.7;84
56594;BME280;42474;51.660;5.824;2023-10-13T02:02:04;1010;;;18.7;84
56594;BME280;42474;51.660;5.824;2023-10-13T02:06:04;1009.9;;;18.7;84
56594;BME280;42474;51.660;5.824;2023-10-13T02:10:05;1009.9;;;18.7;84
56594;BME280;42474;51.660;5.824;2023-10-13T02:14:04;1009.8;;;18.7;84
56594;BME280;42474;51.660;5.824;2023-10-13T02:22:04;1009.6;;;18.7;84
56594;BME280;42474;51.660;5.824;2023-10-13T02:26:04;1009.6;;;18.8;84
56594;BME280;42474;51.660;5.824;2023-10-13T02:30:05;1009.6;;;18.8;84
56594;BME280;42474;51.660;5.824;2023-10-13T02:34:05;1009.6;;;18.7;84
56594;BME280;42474;51.660;5.824;2023-10-13T02:38:04;1009.5;;;18.7;84
56594;BME280;42474;51.660;5.824;2023-10-13T02:42:04;1009.5;;;18.7;84
56594;BME280;42474;51.660;5.824;2023-10-13T02:46:04;1009.5;;;18.7;84.5
56594;BME280;42474;51.660;5.824;2023-10-13T02:50:05;1009.4;;;18.7;84.5
56594;BME280;42474;51.660;5.824;2023-10-13T02:54:05;1009.3;;;18.7;85
56594;BME280;42474;51.660;5.824;2023-10-13T02:58:04;1009.1;;;18.7;85
56594;BME280;42474;51.660;5.824;2023-10-13T03:02:04;1009.1;;;18.7;85.5
56594;BME280;42474;51.660;5.824;2023-10-13T03:06:04;1009.2;;;18.7;85.5
56594;BME280;42474;51.660;5.824;2023-10-13T03:10:05;1008.9;;;18.7;85.5
56594;BME280;42474;51.660;5.824;2023-10-13T03:14:04;1008.8;;;18.7;85.5
56594;BME280;42474;51.660;5.824;2023-10-13T03:18:04;1008.8;;;18.7;85.5
56594;BME280;42474;51.660;5.824;2023-10-13T03:22:05;1008.7;;;18.7;85.5
56594;BME280;42474;51.660;5.824;2023-10-13T03:26:08;1008.6;;;18.8;85.5
56594;BME280;42474;51.660;5.824;2023-10-13T03:30:05;1008.6;;;18.8;85.5
56594;BME280;42474;51.660;5.824;2023-10-13T03:34:04;1008.5;;;18.8;85.5
56594;BME280;42474;51.660;5.824;2023-10-13T03:38:04;1008.3;;;18.8;85.5
56594;BME280;42474;51.660;5.824;2023-10-13T03:42:04;1008.3;;;18.8;85.5
56594;BME280;42474;51.660;5.824;2023-10-13T03:46:04;1008.3;;;18.8;85.5
56594;BME280;42474;51.660;5.824;2023-10-13T03:50:05;1008.2;;;18.9;85.5
56594;BME280;42474;51.660;5.824;2023-10-13T03:54:04;1008.1;;;18.9;85.5
56594;BME280;42474;51.660;5.824;2023-10-13T03:58:04;1007.9;;;18.8;86
56594;BME280;42474;51.660;5.824;2023-10-13T04:02:04;1007.8;;;18.9;86
56594;BME280;42474;51.660;5.824;2023-10-13T04:06:04;1007.8;;;18.9;86
56594;BME280;42474;51.660;5.824;2023-10-13T04:10:06;1007.7;;;18.9;86.5
56594;BME280;42474;51.660;5.824;2023-10-13T04:14:04;1007.7;;;18.9;86.5
56594;BME280;42474;51.660;5.824;2023-10-13T04:18:04;1007.6;;;19;86.5
56594;BME280;42474;51.660;5.824;2023-10-13T04:22:04;1007.4;;;19;86.5
56594;BME280;42474;51.660;5.824;2023-10-13T04:26:04;1007.4;;;19;87
56594;BME280;42474;51.660;5.824;2023-10-13T04:30:06;1007.2;;;19;87
56594;BME280;42474;51.660;5.824;2023-10-13T04:34:04;1007.2;;;19;87
56594;BME280;42474;51.660;5.824;2023-10-13T04:38:04;1007.1;;;19.1;87
56594;BME280;42474;51.660;5.824;2023-10-13T04:42:04;1007.1;;;19.1;87
56594;BME280;42474;51.660;5.824;2023-10-13T04:46:05;1007.1;;;19.1;87
56594;BME280;42474;51.660;5.824;2023-10-13T04:50:05;1007.1;;;19.2;87
56594;BME280;42474;51.660;5.824;2023-10-13T04:54:05;1007.1;;;19.2;87
56594;BME280;42474;51.660;5.824;2023-10-13T04:58:04;1007.1;;;19.2;87
56594;BME280;42474;51.660;5.824;2023-10-13T05:02:05;1007;;;19.2;87
56594;BME280;42474;51.660;5.824;2023-10-13T05:06:05;1007;;;19.2;87
56594;BME280;42474;51.660;5.824;2023-10-13T05:10:05;1006.9;;;19.3;87.5
56594;BME280;42474;51.660;5.824;2023-10-13T05:14:05;1006.9;;;19.3;87.5
56594;BME280;42474;51.660;5.824;2023-10-13T05:18:05;1006.9;;;19.3;87.5
56594;BME280;42474;51.660;5.824;2023-10-13T05:22:05;1006.8;;;19.3;87.5
56594;BME280;42474;51.660;5.824;2023-10-13T05:26:05;1006.7;;;19.3;87.5
56594;BME280;42474;51.660;5.824;2023-10-13T05:30:05;1006.7;;;19.3;87.5
56594;BME280;42474;51.660;5.824;2023-10-13T05:34:05;1006.7;;;19.4;87.5
56594;BME280;42474;51.660;5.824;2023-10-13T05:38:05;1006.4;;;19.4;87
56594;BME280;42474;51.660;5.824;2023-10-13T05:42:05;1006.2;;;19.4;87
56594;BME280;42474;51.660;5.824;2023-10-13T05:46:05;1006.2;;;19.4;87
56594;BME280;42474;51.660;5.824;2023-10-13T05:50:05;1006.2;;;19.4;87
56594;BME280;42474;51.660;5.824;2023-10-13T05:54:05;1006.3;;;19.4;87
56594;BME280;42474;51.660;5.824;2023-10-13T05:58:05;1006.4;;;19.4;87
56594;BME280;42474;51.660;5.824;2023-10-13T06:02:05;1006.3;;;19.4;87
56594;BME280;42474;51.660;5.824;2023-10-13T06:06:06;1006.3;;;19.4;87
56594;BME280;42474;51.660;5.824;2023-10-13T06:10:05;1006.3;;;19.4;87
56594;BME280;42474;51.660;5.824;2023-10-13T06:14:05;1006.3;;;19.5;87
56594;BME280;42474;51.660;5.824;2023-10-13T06:18:05;1006.3;;;19.5;87
56594;BME280;42474;51.660;5.824;2023-10-13T06:26:05;1006.3;;;19.5;87
56594;BME280;42474;51.660;5.824;2023-10-13T06:30:05;1006.3;;;19.5;87
56594;BME280;42474;51.660;5.824;2023-10-13T06:34:05;1006.3;;;19.5;87
56594;BME280;42474;51.660;5.824;2023-10-13T06:38:05;1006.3;;;19.6;86.5
56594;BME280;42474;51.660;5.824;2023-10-13T06:42:05;1006.3;;;19.6;86.5
56594;BME280;42474;51.660;5.824;2023-10-13T06:46:05;1006.3;;;19.6;86
56594;BME280;42474;51.660;5.824;2023-10-13T06:50:05;1006.1;;;19.6;86
56594;BME280;42474;51.660;5.824;2023-10-13T06:54:05;1006.1;;;19.6;86
56594;BME280;42474;51.660;5.824;2023-10-13T06:58:05;1006.1;;;19.7;85.5
56594;BME280;42474;51.660;5.824;2023-10-13T07:02:05;1006;;;19.7;85
56594;BME280;42474;51.660;5.824;2023-10-13T07:06:05;1006;;;19.7;85
56594;BME280;42474;51.660;5.824;2023-10-13T07:10:07;1005.9;;;19.7;84.5
56594;BME280;42474;51.660;5.824;2023-10-13T07:14:05;1005.9;;;19.7;84.5
56594;BME280;42474;51.660;5.824;2023-10-13T07:18:05;1005.8;;;19.7;84.5
56594;BME280;42474;51.660;5.824;2023-10-13T07:22:05;1005.8;;;19.7;84.5
56594;BME280;42474;51.660;5.824;2023-10-13T07:26:05;1005.6;;;19.7;85
56594;BME280;42474;51.660;5.824;2023-10-13T07:30:05;1005.6;;;19.7;85
56594;BME280;42474;51.660;5.824;2023-10-13T07:34:05;1005.5;;;19.7;85
56594;BME280;42474;51.660;5.824;2023-10-13T07:38:05;1005.4;;;19.7;85.5
56594;BME280;42474;51.660;5.824;2023-10-13T07:42:05;1005.4;;;19.7;85.5
56594;BME280;42474;51.660;5.824;2023-10-13T07:46:05;1005.4;;;19.7;85.5
56594;BME280;42474;51.660;5.824;2023-10-13T07:50:05;1005.4;;;19.8;85.5
56594;BME280;42474;51.660;5.824;2023-10-13T07:54:05;1005.4;;;19.8;85.5
56594;BME280;42474;51.660;5.824;2023-10-13T07:58:05;1005.4;;;19.9;85.5
56594;BME280;42474;51.660;5.824;2023-10-13T08:02:05;1005.4;;;19.9;85.5
56594;BME280;42474;51.660;5.824;2023-10-13T08:06:05;1005.2;;;20;84.5
56594;BME280;42474;51.660;5.824;2023-10-13T08:10:05;1005.2;;;20.1;83.5
56594;BME280;42474;51.660;5.824;2023-10-13T08:14:05;1005.1;;;20.2;83.5
56594;BME280;42474;51.660;5.824;2023-10-13T08:18:05;1005;;;20.3;82.5
56594;BME280;42474;51.660;5.824;2023-10-13T08:22:05;1005.1;;;20.3;82.5
56594;BME280;42474;51.660;5.824;2023-10-13T08:26:09;1005;;;20.4;81.5
56594;BME280;42474;51.660;5.824;2023-10-13T08:30:05;1005;;;20.5;81
56594;BME280;42474;51.660;5.824;2023-10-13T08:34:05;1005;;;20.6;81
56594;BME280;42474;51.660;5.824;2023-10-13T08:38:05;1005;;;20.7;81
56594;BME280;42474;51.660;5.824;2023-10-13T08:42:05;1005;;;20.8;80
56594;BME280;42474;51.660;5.824;2023-10-13T08:46:05;1005;;;21;79
56594;BME280;42474;51.660;5.824;2023-10-13T08:50:05;1005;;;21.1;78
56594;BME280;42474;51.660;5.824;2023-10-13T08:54:05;1004.9;;;21.2;77.5
56594;BME280;42474;51.660;5.824;2023-10-13T08:58:05;1004.8;;;21.3;76.5
56594;BME280;42474;51.660;5.824;2023-10-13T09:02:11;1004.7;;;21.4;76
56594;BME280;42474;51.660;5.824;2023-10-13T09:06:05;1004.8;;;21.6;75
56594;BME280;42474;51.660;5.824;2023-10-13T09:10:05;1004.6;;;21.6;74.5
56594;BME280;42474;51.660;5.824;2023-10-13T09:14:12;1004.7;;;21.6;75
56594;BME280;42474;51.660;5.824;2023-10-13T09:18:05;1004.6;;;21.6;74
56594;BME280;42474;51.660;5.824;2023-10-13T09:22:05;1004.6;;;21.6;73.5
56594;BME280;42474;51.660;5.824;2023-10-13T09:30:05;1004.4;;;21.7;72
56594;BME280;42474;51.660;5.824;2023-10-13T09:34:05;1004.5;;;21.6;72.5
56594;BME280;42474;51.660;5.824;2023-10-13T09:38:05;1004.4;;;21.7;72
56594;BME280;42474;51.660;5.824;2023-10-13T09:42:05;1004.5;;;21.7;72
56594;BME280;42474;51.660;5.824;2023-10-13T09:46:05;1004.4;;;21.7;72
56594;BME280;42474;51.660;5.824;2023-10-13T09:50:05;1004.4;;;21.7;71
56594;BME280;42474;51.660;5.824;2023-10-13T09:54:06;1004.4;;;21.8;71
56594;BME280;42474;51.660;5.824;2023-10-13T09:58:06;1004.3;;;21.9;71
56594;BME280;42474;51.660;5.824;2023-10-13T10:02:05;1004.3;;;22;70.5
56594;BME280;42474;51.660;5.824;2023-10-13T10:06:05;1004.3;;;22;69.5
56594;BME280;42474;51.660;5.824;2023-10-13T10:10:05;1004.2;;;22;69.5
56594;BME280;42474;51.660;5.824;2023-10-13T10:14:07;1004.2;;;22.1;70
56594;BME280;42474;51.660;5.824;2023-10-13T10:18:05;1004.2;;;22.2;68.5
56594;BME280;42474;51.660;5.824;2023-10-13T10:22:05;1004.1;;;22.3;69
56594;BME280;42474;51.660;5.824;2023-10-13T10:26:09;1004;;;22.4;67.5
56594;BME280;42474;51.660;5.824;2023-10-13T10:30:05;1004;;;22.4;68
56594;BME280;42474;51.660;5.824;2023-10-13T10:34:10;1003.9;;;22.4;68
56594;BME280;42474;51.660;5.824;2023-10-13T10:38:08;1003.8;;;22.4;67.5
56594;BME280;42474;51.660;5.824;2023-10-13T10:42:09;1003.7;;;22.4;67.5
56594;BME280;42474;51.660;5.824;2023-10-13T10:46:05;1003.6;;;22.4;67
56594;BME280;42474;51.660;5.824;2023-10-13T10:50:05;1003.6;;;22.3;67
56594;BME280;42474;51.660;5.824;2023-10-13T10:54:05;1003.6;;;22.3;67
56594;BME280;42474;51.660;5.824;2023-10-13T10:58:05;1003.7;;;22.4;66.5
56594;BME280;42474;51.660;5.824;2023-10-13T11:02:05;1003.7;;;22.4;67
56594;BME280;42474;51.660;5.824;2023-10-13T11:06:05;1003.6;;;22.5;66.5
56594;BME280;42474;51.660;5.824;2023-10-13T11:10:08;1003.5;;;22.5;66.5
56594;BME280;42474;51.660;5.824;2023-10-13T11:14:05;1003.6;;;22.6;66
56594;BME280;42474;51.660;5.824;2023-10-13T11:18:05;1003.6;;;22.8;65.5
56594;BME280;42474;51.660;5.824;2023-10-13T11:22:13;1003.4;;;22.9;65.5
56594;BME280;42474;51.660;5.824;2023-10-13T11:26:05;1003.5;;;23;65
56594;BME280;42474;51.660;5.824;2023-10-13T11:30:05;1003.3;;;23.1;64.5
56594;BME280;42474;51.660;5.824;2023-10-13T11:34:05;1003.2;;;23.2;63
56594;BME280;42474;51.660;5.824;2023-10-13T11:38:05;1003.2;;;23.3;62.5
56594;BME280;42474;51.660;5.824;2023-10-13T11:42:05;1003;;;23.3;63
56594;BME280;42474;51.660;5.824;2023-10-13T11:46:05;1003;;;23.4;62.5
56594;BME280;42474;51.660;5.824;2023-10-13T11:50:05;1002.8;;;23.4;62.5
56594;BME280;42474;51.660;5.824;2023-10-13T11:54:05;1002.9;;;23.5;61.5
56594;BME280;42474;51.660;5.824;2023-10-13T11:58:05;1002.9;;;23.6;61.5
56594;BME280;42474;51.660;5.824;2023-10-13T12:02:05;1002.9;;;23.6;60.5
56594;BME280;42474;51.660;5.824;2023-10-13T12:06:08;1002.8;;;23.7;60.5
56594;BME280;42474;51.660;5.824;2023-10-13T12:10:05;1002.7;;;23.7;60.5
56594;BME280;42474;51.660;5.824;2023-10-13T12:14:05;1002.6;;;23.8;59.5
56594;BME280;42474;51.660;5.824;2023-10-13T12:18:05;1002.5;;;23.8;58.5
56594;BME280;42474;51.660;5.824;2023-10-13T12:22:05;1002.5;;;23.9;59
56594;BME280;42474;51.660;5.824;2023-10-13T12:26:05;1002.5;;;23.9;59.5
56594;BME280;42474;51.660;5.824;2023-10-13T12:30:05;1002.5;;;24;60
56594;BME280;42474;51.660;5.824;2023-10-13T12:34:05;1002.5;;;24.1;58.5
56594;BME280;42474;51.660;5.824;2023-10-13T12:38:05;1002.5;;;24.2;59.5
56594;BME280;42474;51.660;5.824;2023-10-13T12:42:05;1002.4;;;24.3;58
56594;BME280;42474;51.660;5.824;2023-10-13T12:46:05;1002.5;;;24.3;59
56594;BME280;42474;51.660;5.824;2023-10-13T12:50:05;1002.4;;;24.4;57.5
56594;BME280;42474;51.660;5.824;2023-10-13T12:58:05;1002.4;;;24.3;58
56594;BME280;42474;51.660;5.824;2023-10-13T13:02:05;1002.3;;;24.3;58
56594;BME280;42474;51.660;5.824;2023-10-13T13:06:05;1002.3;;;24.3;58
56594;BME280;42474;51.660;5.824;2023-10-13T13:10:05;1002.3;;;24.3;57.5
56594;BME280;42474;51.660;5.824;2023-10-13T13:14:05;1002.4;;;24.3;57.5
56594;BME280;42474;51.660;5.824;2023-10-13T13:18:05;1002.4;;;24.4;57.5
56594;BME280;42474;51.660;5.824;2023-10-13T13:22:05;1002.3;;;24.4;56.5
56594;BME280;42474;51.660;5.824;2023-10-13T13:26:05;1002.3;;;24.4;57
56594;BME280;42474;51.660;5.824;2023-10-13T13:30:05;1002.2;;;24.4;57.5
56594;BME280;42474;51.660;5.824;2023-10-13T13:34:05;1002.3;;;24.3;56
56594;BME280;42474;51.660;5.824;2023-10-13T13:38:05;1002.3;;;24.3;57
56594;BME280;42474;51.660;5.824;2023-10-13T13:42:05;1002.3;;;24.3;56.5
56594;BME280;42474;51.660;5.824;2023-10-13T13:46:05;1002.1;;;24.3;56.5
56594;BME280;42474;51.660;5.824;2023-10-13T13:50:05;1002.2;;;24.2;56
56594;BME280;42474;51.660;5.824;2023-10-13T13:54:05;1002.2;;;24.2;56
56594;BME280;42474;51.660;5.824;2023-10-13T13:58:05;1002.2;;;24.2;56
56594;BME280;42474;51.660;5.824;2023-10-13T14:02:05;1002.2;;;24.2;56.5
56594;BME280;42474;51.660;5.824;2023-10-13T14:06:05;1002.2;;;24.1;56.5
56594;BME280;42474;51.660;5.824;2023-10-13T14:10:05;1002.1;;;24;55.5
56594;BME280;42474;51.660;5.824;2023-10-13T14:14:05;1002.2;;;24;56.5
56594;BME280;42474;51.660;5.824;2023-10-13T14:18:05;1002.3;;;24;56.5
56594;BME280;42474;51.660;5.824;2023-10-13T14:22:05;1002.2;;;23.9;56.5
56594;BME280;42474;51.660;5.824;2023-10-13T14:26:05;1002.1;;;23.9;56.5
56594;BME280;42474;51.660;5.824;2023-10-13T14:30:05;1002.2;;;23.9;56.5
56594;BME280;42474;51.660;5.824;2023-10-13T14:34:05;1002.2;;;23.9;56.5
56594;BME280;42474;51.660;5.824;2023-10-13T14:38:05;1002.1;;;23.8;57
56594;BME280;42474;51.660;5.824;2023-10-13T14:42:05;1002.1;;;23.8;57
56594;BME280;42474;51.660;5.824;2023-10-13T14:46:07;1002.1;;;23.8;56.5
56594;BME280;42474;51.660;5.824;2023-10-13T14:50:05;1002.1;;;23.8;55.5
56594;BME280;42474;51.660;5.824;2023-10-13T14:54:05;1002.1;;;23.8;56
56594;BME280;42474;51.660;5.824;2023-10-13T14:58:05;1002.2;;;23.8;56
56594;BME280;42474;51.660;5.824;2023-10-13T15:02:05;1002.2;;;23.8;56
56594;BME280;42474;51.660;5.824;2023-10-13T15:06:05;1002.1;;;23.8;56.5
56594;BME280;42474;51.660;5.824;2023-10-13T15:10:05;1002.3;;;23.8;57
56594;BME280;42474;51.660;5.824;2023-10-13T15:14:05;1002.2;;;23.8;57
56594;BME280;42474;51.660;5.824;2023-10-13T15:18:05;1002.2;;;23.8;57
56594;BME280;42474;51.660;5.824;2023-10-13T15:22:05;1002.2;;;23.7;57
56594;BME280;42474;51.660;5.824;2023-10-13T15:26:05;1002.1;;;23.6;57.5
56594;BME280;42474;51.660;5.824;2023-10-13T15:30:06;1002.3;;;23.6;57
56594;BME280;42474;51.660;5.824;2023-10-13T15:34:05;1002.2;;;23.6;58.5
56594;BME280;42474;51.660;5.824;2023-10-13T15:38:05;1002.2;;;23.4;60
56594;BME280;42474;51.660;5.824;2023-10-13T15:42:05;1001.9;;;23.2;61
56594;BME280;42474;51.660;5.824;2023-10-13T15:46:08;1001.8;;;23.1;61
56594;BME280;42474;51.660;5.824;2023-10-13T15:50:05;1001.7;;;22.9;61.5
56594;BME280;42474;51.660;5.824;2023-10-13T15:54:05;1001.7;;;22.8;61.5
56594;BME280;42474;51.660;5.824;2023-10-13T15:58:05;1001.7;;;22.7;62
56594;BME280;42474;51.660;5.824;2023-10-13T16:02:05;1001.7;;;22.6;62.5
56594;BME280;42474;51.660;5.824;2023-10-13T16:06:05;1001.5;;;22.5;63.5
56594;BME280;42474;51.660;5.824;2023-10-13T16:10:06;1001.5;;;22.4;64
56594;BME280;42474;51.660;5.824;2023-10-13T16:14:05;1001.3;;;22.2;64.5
56594;BME280;42474;51.660;5.824;2023-10-13T16:18:05;1001.1;;;22;65
56594;BME280;42474;51.660;5.824;2023-10-13T16:22:05;1001.1;;;21.9;66
56594;BME280;42474;51.660;5.824;2023-10-13T16:26:05;1001.2;;;21.8;66
56594;BME280;42474;51.660;5.824;2023-10-13T16:30:06;1001.1;;;21.7;66.5
56594;BME280;42474;51.660;5.824;2023-10-13T16:34:05;1001;;;21.7;66.5
56594;BME280;42474;51.660;5.824;2023-10-13T16:38:05;1000.9;;;21.6;67
56594;BME280;42474;51.660;5.824;2023-10-13T16:42:05;1000.9;;;21.5;67
56594;BME280;42474;51.660;5.824;2023-10-13T16:46:05;1000.9;;;21.5;67
56594;BME280;42474;51.660;5.824;2023-10-13T16:50:05;1000.8;;;21.5;66.5
56594;BME280;42474;51.660;5.824;2023-10-13T16:54:05;1000.7;;;21.4;66
56594;BME280;42474;51.660;5.824;2023-10-13T16:58:05;1000.6;;;21.4;66
56594;BME280;42474;51.660;5.824;2023-10-13T17:02:05;1000.6;;;21.4;66
56594;BME280;42474;51.660;5.824;2023-10-13T17:06:06;1000.6;;;21.4;65.5
56594;BME280;42474;51.660;5.824;2023-10-13T17:10:05;1000.6;;;21.4;65.5
56594;BME280;42474;51.660;5.824;2023-10-13T17:14:05;1000.9;;;21.4;65.5
56594;BME280;42474;51.660;5.824;2023-10-13T17:18:05;1001.1;;;21.4;67.5
56594;BME280;42474;51.660;5.824;2023-10-13T17:22:05;1001.1;;;21.2;69
56594;BME280;42474;51.660;5.824;2023-10-13T17:26:05;1001.1;;;20.9;71.5
56594;BME280;42474;51.660;5.824;2023-10-13T17:30:05;1001;;;20.6;73
56594;BME280;42474;51.660;5.824;2023-10-13T17:34:05;1000.9;;;20.3;74
56594;BME280;42474;51.660;5.824;2023-10-13T17:38:05;1000.8;;;20.2;74.5
56594;BME280;42474;51.660;5.824;2023-10-13T17:42:05;1000.6;;;20.1;74.5
56594;BME280;42474;51.660;5.824;2023-10-13T17:46:05;1000.6;;;20;75
56594;BME280;42474;51.660;5.824;2023-10-13T17:50:05;1000.6;;;20;75.5
56594;BME280;42474;51.660;5.824;2023-10-13T17:54:05;1000.5;;;19.9;75.5
56594;BME280;42474;51.660;5.824;2023-10-13T17:58:05;1000.6;;;19.9;76
56594;BME280;42474;51.660;5.824;2023-10-13T18:02:05;1000.5;;;19.8;76
56594;BME280;42474;51.660;5.824;2023-10-13T18:06:05;1000.5;;;19.8;76.5
56594;BME280;42474;51.660;5.824;2023-10-13T18:10:05;1000.5;;;19.8;76.5
56594;BME280;42474;51.660;5.824;2023-10-13T18:14:05;1000.4;;;19.8;76.5
56594;BME280;42474;51.660;5.824;2023-10-13T18:18:05;1000.4;;;19.8;76.5
56594;BME280;42474;51.660;5.824;2023-10-13T18:22:05;1000.4;;;19.8;76.5
56594;BME280;42474;51.660;5.824;2023-10-13T18:26:05;1000.4;;;19.8;76.5
56594;BME280;42474;51.660;5.824;2023-10-13T18:30:06;1000.4;;;19.8;76.5
56594;BME280;42474;51.660;5.824;2023-10-13T18:34:05;1000.4;;;19.8;77
56594;BME280;42474;51.660;5.824;2023-10-13T18:38:05;1000.4;;;19.8;76.5
56594;BME280;42474;51.660;5.824;2023-10-13T18:42:05;1000.6;;;19.8;77
56594;BME280;42474;51.660;5.824;2023-10-13T18:46:05;1000.6;;;19.8;77.5
56594;BME280;42474;51.660;5.824;2023-10-13T18:50:05;1000.6;;;19.7;78
56594;BME280;42474;51.660;5.824;2023-10-13T18:54:05;1000.6;;;19.6;78.5
56594;BME280;42474;51.660;5.824;2023-10-13T18:58:05;1000.7;;;19.6;79
56594;BME280;42474;51.660;5.824;2023-10-13T19:02:05;1000.6;;;19.5;79.5
56594;BME280;42474;51.660;5.824;2023-10-13T19:06:05;1000.7;;;19.4;80.5
56594;BME280;42474;51.660;5.824;2023-10-13T19:10:05;1000.6;;;19.3;81
56594;BME280;42474;51.660;5.824;2023-10-13T19:14:05;1000.4;;;19.3;81
56594;BME280;42474;51.660;5.824;2023-10-13T19:18:05;1000.1;;;19.4;81
56594;BME280;42474;51.660;5.824;2023-10-13T19:22:05;1000.1;;;19.3;81
56594;BME280;42474;51.660;5.824;2023-10-13T19:26:09;1000;;;19.3;81
56594;BME280;42474;51.660;5.824;2023-10-13T19:30:05;1000;;;19.3;81
56594;BME280;42474;51.660;5.824;2023-10-13T19:34:05;1000;;;19.3;81
56594;BME280;42474;51.660;5.824;2023-10-13T19:38:05;1000;;;19.3;81
56594;BME280;42474;51.660;5.824;2023-10-13T19:42:05;1000;;;19.3;81
56594;BME280;42474;51.660;5.824;2023-10-13T19:46:05;1000.1;;;19.3;81
56594;BME280;42474;51.660;5.824;2023-10-13T19:50:05;999.9;;;19.3;81
56594;BME280;42474;51.660;5.824;2023-10-13T19:54:05;999.9;;;19.3;81.5
56594;BME280;42474;51.660;5.824;2023-10-13T19:58:05;999.7;;;19.3;81
56594;BME280;42474;51.660;5.824;2023-10-13T20:02:05;999.6;;;19.3;81
56594;BME280;42474;51.660;5.824;2023-10-13T20:06:05;999.5;;;19.3;81
56594;BME280;42474;51.660;5.824;2023-10-13T20:10:06;999.5;;;19.3;81
56594;BME280;42474;51.660;5.824;2023-10-13T20:14:05;999.4;;;19.3;81
56594;BME280;42474;51.660;5.824;2023-10-13T20:18:05;999.3;;;19.3;81
56594;BME280;42474;51.660;5.824;2023-10-13T20:22:05;999.2;;;19.3;81
56594;BME280;42474;51.660;5.824;2023-10-13T20:26:06;999.2;;;19.2;81
56594;BME280;42474;51.660;5.824;2023-10-13T20:30:06;999.2;;;19.2;81
56594;BME280;42474;51.660;5.824;2023-10-13T20:34:05;999.2;;;19.2;81
56594;BME280;42474;51.660;5.824;2023-10-13T20:38:05;999.1;;;19.2;81
56594;BME280;42474;51.660;5.824;2023-10-13T20:42:05;999.1;;;19.2;81
56594;BME280;42474;51.660;5.824;2023-10-13T20:46:05;999;;;19.2;81
56594;BME280;42474;51.660;5.824;2023-10-13T20:50:05;999;;;19.2;81
56594;BME280;42474;51.660;5.824;2023-10-13T20:54:05;999.1;;;19.2;81
56594;BME280;42474;51.660;5.824;2023-10-13T20:58:05;999.1;;;19.2;81
56594;BME280;42474;51.660;5.824;2023-10-13T21:02:05;999;;;19.2;81
56594;BME280;42474;51.660;5.824;2023-10-13T21:06:05;999.1;;;19.2;80.5
56594;BME280;42474;51.660;5.824;2023-10-13T21:10:06;999.1;;;19.3;80.5
56594;BME280;42474;51.660;5.824;2023-10-13T21:14:05;999.1;;;19.3;80.5
56594;BME280;42474;51.660;5.824;2023-10-13T21:18:05;999.1;;;19.3;80.5
56594;BME280;42474;51.660;5.824;2023-10-13T21:22:05;999;;;19.4;80
56594;BME280;42474;51.660;5.824;2023-10-13T21:26:05;999;;;19.4;80
56594;BME280;42474;51.660;5.824;2023-10-13T21:30:06;998.9;;;19.4;79.5
56594;BME280;42474;51.660;5.824;2023-10-13T21:34:05;998.8;;;19.4;79.5
56594;BME280;42474;51.660;5.824;2023-10-13T21:38:05;998.8;;;19.4;79
56594;BME280;42474;51.660;5.824;2023-10-13T21:42:05;998.7;;;19.4;79
56594;BME280;42474;51.660;5.824;2023-10-13T21:46:05;998.7;;;19.4;79
56594;BME280;42474;51.660;5.824;2023-10-13T21:50:05;998.7;;;19.5;78.5
56594;BME280;42474;51.660;5.824;2023-10-13T21:54:05;998.6;;;19.5;78.5
56594;BME280;42474;51.660;5.824;2023-10-13T21:58:05;998.7;;;19.5;78.5
56594;BME280;42474;51.660;5.824;2023-10-13T22:02:05;998.6;;;19.5;78.5
56594;BME280;42474;51.660;5.824;2023-10-13T22:06:05;998.7;;;19.5;78
56594;BME280;42474;51.660;5.824;2023-10-13T22:10:06;998.7;;;19.6;78
56594;BME280;42474;51.660;5.824;2023-10-13T22:14:05;998.6;;;19.6;78
56594;BME280;42474;51.660;5.824;2023-10-13T22:18:05;998.5;;;19.7;78
56594;BME280;42474;51.660;5.824;2023-10-13T22:22:05;998.4;;;19.7;77.5
56594;BME280;42474;51.660;5.824;2023-10-13T22:26:05;998.8;;;19.7;78
56594;BME280;42474;51.660;5.824;2023-10-13T22:30:06;998.9;;;19.7;78
56594;BME280;42474;51.660;5.824;2023-10-13T22:34:05;998.9;;;19.5;77
56594;BME280;42474;51.660;5.824;2023-10-13T22:38:05;998.7;;;19.2;78
56594;BME280;42474;51.660;5.824;2023-10-13T22:42:05;998.8;;;19.1;78.5
56594;BME280;42474;51.660;5.824;2023-10-13T22:46:05;998.9;;;19;79
56594;BME280;42474;51.660;5.824;2023-10-13T22:50:06;998.8;;;18.9;79.5
56594;BME280;42474;51.660;5.824;2023-10-13T22:54:05;998.6;;;18.8;80
56594;BME280;42474;51.660;5.824;2023-10-13T22:58:05;998.7;;;18.7;80
56594;BME280;42474;51.660;5.824;2023-10-13T23:02:05;998.8;;;18.7;80
56594;BME280;42474;51.660;5.824;2023-10-13T23:06:05;998.9;;;18.6;81
56594;BME280;42474;51.660;5.824;2023-10-13T23:10:06;998.7;;;18.5;81.5